Aérodrome :
LOGIN :

S'inscrire | Disclaimer

   EN    FR    IT 

 










Légende :    VFR   VFR Marginal   IFR   IFR Intensif   IFR Très Intensif
Visi : 
Plafond : 
>= 8 km
>= 3000ft
5 à 8 km
1000 à 3000 ft
1500m à 5 km
500 à 1000 ft
800 à 1500m
200 à 500 ft
< 800m
< 200 ft
Symboles :   Orages  Brouillard  Fortes neiges  Fortes précipitations  Vent > 20 kt
SIGMETs :   Divers  Orages  Givrage  Turbulence  Onde Orograph.  Cendres Volcan.







- Altitude de l'aérodrome : 233 ft
- Code IATA : REU


LERS - Reus Tarragona

DERNIER METAR :
  • 172300Z AUTO 27015KT 240V300 CAVOK 11/M19 Q1023

METARs EXPIRÉS :
  • 172230Z AUTO 27013KT 240V300 CAVOK 11/02 Q1022
  • 172200Z AUTO 26012KT CAVOK 12/03 Q1023
  • 172130Z AUTO 24010KT CAVOK 12/04 Q1022
  • 172100Z 22006KT CAVOK 12/04 Q1022
  • 172030Z VRB02KT 6000 FEW015 12/09 Q1022
  • 172000Z 21003KT 160V250 3500 BR FEW015 12/10 Q1022

TAF TAF LERS
Valide du 17 à 21h jusqu'au 18 à 21h UTC


172000Z 1721/1821 29008KT 9999 FEW020 TX16/1813Z TN05/1807Z
TEMPO 1721/1806 4000 BR BKN010
TEMPO 1812/1815 13009KT
Pas de NOTAMs connus pour ce terrain.



MET'MAP, la Météo Aéronautique d'un coup d'oeil ! - Copyright ORBIFLY Décembre 2007 - Disclaimer

ORBIFLY MET'MAP TEAM :

Programmation & Développement : Alexandra Zaïnal
Conception & Développement : Baudouin d'Aumeries
Co-Programmation & Développement : Marc-Olivier Méhu
Soutien technique & logistique : Manuel Goepfert

Contact : metmap@orbifly.com




SOURCES & CREDITS :

   NOAA